Time;durP1;ratioP1;P1;durP2;ratioP2;P2;SDS_P1;SDS_P2;PMS_P1;PMS_P2;Temp;Humidity;BMP_temperature;BMP_pressure;BME280_temperature;BME280_humidity;BME280_pressure;Samples;Min_cycle;Max_cycle;Signal;HPM_P1;HPM_P2
2022/03/31 00:02:10;;;;;;;20.93;12.93;;;;;;;;;;5073369;28;20437;-63
2022/03/31 00:04:38;;;;;;;19.63;12.53;;;;;;;;;;5072107;28;20397;-62
2022/03/31 00:07:04;;;;;;;22.60;14.10;;;;;;;;;;5073227;28;20460;-63
2022/03/31 00:09:30;;;;;;;22.07;14.90;;;;;;;;;;5073227;28;20452;-63
2022/03/31 00:11:59;;;;;;;29.80;14.77;;;;;;;;;;5071915;28;20836;-63
2022/03/31 00:14:26;;;;;;;23.20;14.47;;;;;;;;;;5073224;28;20413;-63
2022/03/31 00:16:52;;;;;;;18.77;13.10;;;;;;;;;;5073137;28;20408;-63
2022/03/31 00:19:18;;;;;;;23.23;14.40;;;;;;;;;;5073125;28;20466;-62
2022/03/31 00:21:44;;;;;;;21.10;13.90;;;;;;;;;;5073047;28;20401;-63
2022/03/31 00:24:09;;;;;;;22.53;13.83;;;;;;;;;;5071848;28;20451;-63
2022/03/31 00:26:36;;;;;;;21.20;13.60;;;;;;;;;;5072980;28;20405;-62
2022/03/31 00:29:02;;;;;;;18.30;13.60;;;;;;;;;;5073132;28;20413;-63
2022/03/31 00:31:28;;;;;;;20.60;13.70;;;;;;;;;;5072793;28;20449;-63
2022/03/31 00:33:54;;;;;;;20.10;13.10;;;;;;;;;;5073088;28;20927;-63
2022/03/31 00:36:20;;;;;;;20.40;12.87;;;;;;;;;;5072969;28;20433;-62
2022/03/31 00:41:38;;;;;;;17.87;11.57;;;;;;;;;;5081847;28;20417;-63
2022/03/31 00:44:05;;;;;;;19.63;11.90;;;;;;;;;;5071653;28;20417;-63
2022/03/31 00:46:31;;;;;;;19.10;12.40;;;;;;;;;;5072879;28;20401;-63
2022/03/31 00:48:57;;;;;;;21.37;12.90;;;;;;;;;;5071505;28;20425;-63
2022/03/31 00:51:23;;;;;;;21.50;11.70;;;;;;;;;;5072917;28;20554;-64
2022/03/31 00:53:49;;;;;;;21.27;12.37;;;;;;;;;;5072806;28;20446;-63
2022/03/31 00:56:17;;;;;;;18.47;12.33;;;;;;;;;;5072672;28;20412;-63
2022/03/31 00:58:43;;;;;;;20.30;12.80;;;;;;;;;;5072567;28;20458;-63
2022/03/31 01:01:10;;;;;;;15.97;10.50;;;;;;;;;;5071382;28;20412;-63
2022/03/31 01:03:36;;;;;;;17.10;11.33;;;;;;;;;;5072598;28;20867;-63
2022/03/31 01:06:02;;;;;;;19.00;11.53;;;;;;;;;;5072653;28;20404;-63
2022/03/31 01:08:28;;;;;;;19.60;12.33;;;;;;;;;;5072496;28;20491;-63
2022/03/31 01:10:56;;;;;;;17.77;11.43;;;;;;;;;;5072245;28;20449;-63
2022/03/31 01:13:22;;;;;;;17.47;11.73;;;;;;;;;;5072561;28;20412;-63
2022/03/31 01:15:48;;;;;;;19.10;11.73;;;;;;;;;;5072553;28;20445;-62
2022/03/31 01:18:14;;;;;;;16.77;10.73;;;;;;;;;;5072464;28;20458;-63
2022/03/31 01:20:40;;;;;;;18.17;10.87;;;;;;;;;;5072392;28;20392;-63
2022/03/31 01:23:14;;;;;;;20.57;11.23;;;;;;;;;;5072374;28;20964;-63
2022/03/31 01:25:40;;;;;;;17.10;11.20;;;;;;;;;;5072437;28;20396;-63
2022/03/31 01:28:06;;;;;;;18.50;11.27;;;;;;;;;;5071021;28;20583;-63
2022/03/31 01:30:32;;;;;;;17.97;11.27;;;;;;;;;;5071045;28;20499;-62
2022/03/31 01:32:58;;;;;;;17.03;10.60;;;;;;;;;;5072280;28;20471;-63
2022/03/31 01:35:24;;;;;;;19.13;12.70;;;;;;;;;;5072238;28;20405;-62
2022/03/31 01:37:50;;;;;;;16.53;11.17;;;;;;;;;;5072202;28;20859;-63
2022/03/31 01:40:16;;;;;;;19.73;10.90;;;;;;;;;;5070906;28;20415;-63
2022/03/31 01:42:43;;;;;;;16.90;11.47;;;;;;;;;;5072194;28;20562;-63
2022/03/31 01:45:18;;;;;;;17.60;11.40;;;;;;;;;;5072232;28;20401;-63
2022/03/31 01:47:44;;;;;;;18.00;11.47;;;;;;;;;;5072181;28;20470;-63
2022/03/31 01:50:11;;;;;;;15.23;10.13;;;;;;;;;;5072225;28;20470;-63
2022/03/31 01:52:38;;;;;;;15.33;10.00;;;;;;;;;;5072231;28;20482;-62
2022/03/31 01:55:04;;;;;;;16.90;10.17;;;;;;;;;;5074842;28;20397;-63
2022/03/31 01:57:30;;;;;;;16.30;10.77;;;;;;;;;;5075787;28;20773;-63
2022/03/31 01:59:56;;;;;;;18.73;12.70;;;;;;;;;;5074372;28;20404;-62
2022/03/31 02:02:22;;;;;;;16.83;10.97;;;;;;;;;;5075683;28;20954;-63
2022/03/31 02:04:48;;;;;;;18.23;10.97;;;;;;;;;;5075691;28;20408;-63
2022/03/31 02:07:14;;;;;;;20.40;11.47;;;;;;;;;;5075616;28;20472;-63
2022/03/31 02:09:41;;;;;;;17.87;10.87;;;;;;;;;;5075280;28;20450;-63
2022/03/31 02:12:07;;;;;;;18.37;10.77;;;;;;;;;;5075571;28;20927;-63
2022/03/31 02:14:37;;;;;;;21.67;12.27;;;;;;;;;;5075553;28;20413;-62
2022/03/31 02:17:03;;;;;;;14.77;10.60;;;;;;;;;;5075389;28;20428;-63
2022/03/31 02:19:29;;;;;;;17.07;10.30;;;;;;;;;;5075342;28;20472;-62
2022/03/31 02:21:55;;;;;;;17.63;11.00;;;;;;;;;;5075354;28;20401;-63
2022/03/31 02:24:21;;;;;;;16.73;10.67;;;;;;;;;;5075380;28;20410;-62
2022/03/31 02:26:48;;;;;;;18.30;11.93;;;;;;;;;;5075215;28;20416;-62
2022/03/31 02:29:14;;;;;;;17.50;11.17;;;;;;;;;;5075139;28;20418;-62
2022/03/31 02:31:40;;;;;;;21.10;12.00;;;;;;;;;;5075067;28;20437;-63
2022/03/31 02:34:06;;;;;;;17.80;11.43;;;;;;;;;;5075152;28;20931;-63
2022/03/31 02:36:32;;;;;;;20.30;11.23;;;;;;;;;;5075114;28;20406;-63
2022/03/31 02:38:58;;;;;;;18.30;11.70;;;;;;;;;;5075077;28;20441;-62
2022/03/31 02:41:24;;;;;;;18.00;11.40;;;;;;;;;;5073740;28;20407;-62
2022/03/31 02:43:51;;;;;;;19.63;12.10;;;;;;;;;;5075002;28;20422;-62
2022/03/31 02:46:17;;;;;;;19.13;11.60;;;;;;;;;;5074879;28;20405;-62
2022/03/31 02:48:43;;;;;;;18.30;11.90;;;;;;;;;;5074845;28;20883;-62
2022/03/31 02:51:09;;;;;;;20.93;12.37;;;;;;;;;;5074863;28;20402;-63
2022/03/31 02:56:20;;;;;;;23.93;12.70;;;;;;;;;;5075053;28;20465;-77
2022/03/31 02:58:46;;;;;;;19.03;11.20;;;;;;;;;;5074702;28;20908;-77
2022/03/31 03:01:13;;;;;;;20.47;12.63;;;;;;;;;;5074447;28;20425;-64
2022/03/31 03:03:39;;;;;;;27.00;13.03;;;;;;;;;;5074741;28;21029;-69
2022/03/31 03:06:06;;;;;;;18.93;12.50;;;;;;;;;;5073686;28;20403;-74
2022/03/31 03:08:32;;;;;;;22.93;12.47;;;;;;;;;;5074442;28;20963;-71
2022/03/31 03:11:00;;;;;;;26.67;13.83;;;;;;;;;;5074216;28;20957;-69
2022/03/31 03:13:26;;;;;;;23.43;13.10;;;;;;;;;;5074544;28;20436;-67
2022/03/31 03:15:53;;;;;;;24.03;13.10;;;;;;;;;;5074640;28;20401;-76
2022/03/31 03:18:19;;;;;;;20.27;13.70;;;;;;;;;;5074176;28;20515;-76
2022/03/31 03:20:46;;;;;;;27.83;13.87;;;;;;;;;;5074198;28;20417;-76
2022/03/31 03:23:12;;;;;;;21.13;13.30;;;;;;;;;;5074163;28;20414;-75
2022/03/31 03:25:38;;;;;;;21.50;13.23;;;;;;;;;;5074266;28;20505;-76
2022/03/31 03:28:04;;;;;;;25.47;14.77;;;;;;;;;;5074126;28;20565;-76
2022/03/31 03:30:30;;;;;;;21.87;14.50;;;;;;;;;;5073920;28;20493;-76
2022/03/31 03:32:56;;;;;;;25.03;13.83;;;;;;;;;;5073681;28;20422;-76
2022/03/31 03:40:50;;;;;;;22.60;13.97;;;;;;;;;;5034424;28;20407;-65
2022/03/31 03:43:16;;;;;;;22.67;14.37;;;;;;;;;;5034292;28;20416;-70
2022/03/31 03:45:42;;;;;;;26.23;15.63;;;;;;;;;;5034167;28;20535;-67
2022/03/31 03:48:11;;;;;;;25.13;14.77;;;;;;;;;;5034016;28;20874;-75
2022/03/31 03:50:38;;;;;;;24.00;14.60;;;;;;;;;;5034016;28;20404;-69
2022/03/31 03:53:04;;;;;;;30.40;14.27;;;;;;;;;;5034083;28;20497;-68
2022/03/31 03:55:34;;;;;;;21.57;13.60;;;;;;;;;;5033927;28;20756;-75
2022/03/31 03:58:00;;;;;;;21.70;13.83;;;;;;;;;;5033839;28;20491;-76
2022/03/31 04:00:26;;;;;;;21.50;13.17;;;;;;;;;;5033728;28;20400;-70
2022/03/31 04:02:53;;;;;;;23.50;13.67;;;;;;;;;;5033765;28;20418;-71
2022/03/31 04:05:19;;;;;;;20.90;14.13;;;;;;;;;;5033979;28;20882;-69
2022/03/31 04:07:45;;;;;;;27.10;15.47;;;;;;;;;;5033742;28;20482;-66
2022/03/31 04:10:11;;;;;;;22.83;14.63;;;;;;;;;;5048966;28;20441;-65
2022/03/31 04:12:39;;;;;;;21.70;13.20;;;;;;;;;;5033752;28;20754;-74
2022/03/31 04:15:06;;;;;;;21.10;14.67;;;;;;;;;;5033702;28;20910;-76
2022/03/31 04:17:32;;;;;;;27.23;15.40;;;;;;;;;;5033389;28;20455;-71
2022/03/31 04:19:58;;;;;;;24.60;14.40;;;;;;;;;;5033429;28;20788;-65
2022/03/31 04:22:24;;;;;;;21.83;14.30;;;;;;;;;;5033529;28;20399;-64
2022/03/31 04:24:50;;;;;;;24.20;13.80;;;;;;;;;;5033502;28;20405;-65
2022/03/31 04:27:17;;;;;;;25.90;15.57;;;;;;;;;;5033373;28;20459;-73
2022/03/31 04:29:43;;;;;;;25.37;15.53;;;;;;;;;;5033405;28;20932;-65
2022/03/31 04:32:09;;;;;;;24.33;15.07;;;;;;;;;;5033428;28;20400;-70
2022/03/31 04:34:35;;;;;;;27.60;15.03;;;;;;;;;;5033354;28;20395;-65
2022/03/31 04:37:01;;;;;;;23.90;14.30;;;;;;;;;;5033399;28;20471;-69
2022/03/31 04:39:27;;;;;;;24.13;15.07;;;;;;;;;;5052353;28;20453;-74
2022/03/31 04:41:54;;;;;;;27.47;15.03;;;;;;;;;;5073259;28;20887;-67
2022/03/31 04:44:20;;;;;;;24.17;15.80;;;;;;;;;;5073306;28;20402;-66
2022/03/31 04:46:46;;;;;;;22.63;14.07;;;;;;;;;;5073041;28;20774;-70
2022/03/31 04:49:12;;;;;;;25.73;13.50;;;;;;;;;;5073116;28;20500;-73
2022/03/31 04:51:39;;;;;;;22.73;13.97;;;;;;;;;;5073194;28;20428;-66
2022/03/31 04:54:05;;;;;;;26.67;15.40;;;;;;;;;;5073190;28;20958;-74
2022/03/31 04:56:31;;;;;;;24.40;13.87;;;;;;;;;;5073129;28;20395;-72
2022/03/31 04:58:57;;;;;;;22.13;13.73;;;;;;;;;;5072913;28;20442;-66
2022/03/31 05:01:24;;;;;;;23.70;15.03;;;;;;;;;;5073074;28;20406;-75
2022/03/31 05:03:50;;;;;;;25.43;14.37;;;;;;;;;;5073087;28;20420;-72
2022/03/31 05:06:16;;;;;;;27.53;15.10;;;;;;;;;;5072976;28;20482;-72
2022/03/31 05:08:42;;;;;;;26.53;15.43;;;;;;;;;;5072851;28;20477;-73
2022/03/31 05:11:08;;;;;;;22.17;13.40;;;;;;;;;;5072916;28;20413;-74
2022/03/31 05:13:34;;;;;;;22.50;13.37;;;;;;;;;;5073101;28;20500;-74
2022/03/31 05:16:00;;;;;;;21.33;13.77;;;;;;;;;;5072942;28;20830;-66
2022/03/31 05:18:27;;;;;;;26.53;13.83;;;;;;;;;;5072606;28;20422;-66
2022/03/31 05:20:53;;;;;;;27.20;15.37;;;;;;;;;;5072996;28;20498;-66
2022/03/31 05:23:19;;;;;;;24.70;14.57;;;;;;;;;;5072873;28;20766;-70
2022/03/31 05:25:45;;;;;;;24.00;14.23;;;;;;;;;;5072788;28;20977;-74
2022/03/31 05:28:11;;;;;;;20.80;12.43;;;;;;;;;;5072798;28;20469;-70
2022/03/31 05:30:38;;;;;;;24.73;13.07;;;;;;;;;;5059086;28;20505;-70
2022/03/31 05:33:04;;;;;;;24.50;13.73;;;;;;;;;;5076894;28;20958;-69
2022/03/31 05:35:30;;;;;;;20.43;13.57;;;;;;;;;;5076489;28;20402;-73
2022/03/31 05:37:56;;;;;;;24.47;14.27;;;;;;;;;;5076801;28;20405;-72
2022/03/31 05:40:22;;;;;;;24.27;14.20;;;;;;;;;;5076893;28;20464;-72
2022/03/31 05:42:49;;;;;;;23.80;13.80;;;;;;;;;;5076655;28;20771;-71
2022/03/31 05:45:15;;;;;;;26.73;13.97;;;;;;;;;;5076165;28;20395;-65
2022/03/31 05:47:41;;;;;;;23.60;12.93;;;;;;;;;;5058242;28;21103;-67
2022/03/31 05:50:11;;;;;;;22.53;13.80;;;;;;;;;;5076232;28;20418;-75
2022/03/31 05:52:42;;;;;;;24.40;15.23;;;;;;;;;;5076215;28;20453;-68
2022/03/31 05:55:18;;;;;;;21.77;12.50;;;;;;;;;;5058315;28;20414;-67
2022/03/31 05:57:45;;;;;;;24.90;13.93;;;;;;;;;;5076072;28;20456;-66
2022/03/31 06:00:13;;;;;;;23.30;13.33;;;;;;;;;;5075990;28;20550;-71
2022/03/31 06:02:40;;;;;;;24.70;14.47;;;;;;;;;;5076074;28;20405;-74
2022/03/31 06:05:06;;;;;;;24.23;13.50;;;;;;;;;;5075882;28;20497;-75
2022/03/31 06:07:32;;;;;;;23.27;13.87;;;;;;;;;;5075858;28;20558;-75
2022/03/31 06:09:58;;;;;;;21.80;12.87;;;;;;;;;;5075741;28;20399;-68
2022/03/31 06:12:24;;;;;;;24.83;14.47;;;;;;;;;;5075751;28;20887;-76
2022/03/31 06:14:50;;;;;;;25.27;14.40;;;;;;;;;;5075692;28;20899;-65
2022/03/31 06:17:16;;;;;;;21.03;14.13;;;;;;;;;;5075637;28;20402;-74
2022/03/31 06:19:42;;;;;;;25.43;14.40;;;;;;;;;;5075611;28;20497;-65
2022/03/31 06:22:09;;;;;;;24.27;15.10;;;;;;;;;;5075562;28;20430;-73
2022/03/31 06:24:35;;;;;;;26.33;14.80;;;;;;;;;;5075493;28;20422;-71
2022/03/31 06:27:01;;;;;;;23.93;13.93;;;;;;;;;;5075471;28;20463;-75
2022/03/31 06:29:29;;;;;;;24.43;14.10;;;;;;;;;;5075468;28;20400;-75
2022/03/31 06:31:55;;;;;;;22.33;13.57;;;;;;;;;;5075534;28;20410;-75
2022/03/31 06:34:22;;;;;;;22.73;13.37;;;;;;;;;;5075453;28;20405;-75
2022/03/31 06:36:48;;;;;;;25.43;14.10;;;;;;;;;;5075469;28;20403;-68
2022/03/31 06:39:14;;;;;;;22.33;13.77;;;;;;;;;;5074963;28;20449;-68
2022/03/31 06:41:42;;;;;;;22.67;13.73;;;;;;;;;;5075300;28;20894;-67
2022/03/31 06:44:08;;;;;;;20.93;13.40;;;;;;;;;;5075322;28;20460;-78
2022/03/31 06:46:35;;;;;;;23.53;13.33;;;;;;;;;;5075188;28;20401;-75
2022/03/31 06:49:02;;;;;;;26.17;14.70;;;;;;;;;;5075080;28;20465;-67
2022/03/31 06:51:28;;;;;;;24.40;13.83;;;;;;;;;;5057722;28;20414;-69
2022/03/31 06:53:57;;;;;;;21.73;13.00;;;;;;;;;;5075300;28;20418;-72
2022/03/31 06:56:23;;;;;;;22.57;13.10;;;;;;;;;;5075058;28;20442;-68
2022/03/31 06:58:49;;;;;;;26.33;14.27;;;;;;;;;;5074842;28;20441;-71
2022/03/31 07:01:15;;;;;;;24.70;14.57;;;;;;;;;;5074928;28;20892;-66
2022/03/31 07:03:41;;;;;;;22.80;13.67;;;;;;;;;;5075005;28;20428;-77
2022/03/31 07:06:07;;;;;;;22.57;14.30;;;;;;;;;;5074827;28;20393;-66
2022/03/31 07:08:34;;;;;;;21.50;13.23;;;;;;;;;;5074710;28;20959;-75
2022/03/31 07:11:00;;;;;;;25.47;14.10;;;;;;;;;;5074705;28;20445;-67
2022/03/31 07:13:26;;;;;;;22.10;13.77;;;;;;;;;;5056786;28;20421;-74
2022/03/31 07:15:53;;;;;;;24.83;14.50;;;;;;;;;;5074545;28;20840;-68
2022/03/31 07:18:19;;;;;;;24.70;15.03;;;;;;;;;;5074481;28;20488;-69
2022/03/31 07:20:45;;;;;;;22.57;13.57;;;;;;;;;;5074490;28;20906;-73
2022/03/31 07:23:12;;;;;;;22.00;13.07;;;;;;;;;;5074615;28;20414;-66
2022/03/31 07:25:38;;;;;;;22.17;14.20;;;;;;;;;;5074438;28;20403;-66
2022/03/31 07:28:04;;;;;;;21.63;13.73;;;;;;;;;;5074273;28;20471;-75
2022/03/31 07:30:30;;;;;;;24.87;15.10;;;;;;;;;;5074343;28;20409;-66
2022/03/31 07:32:58;;;;;;;25.93;14.90;;;;;;;;;;5074381;28;20414;-73
2022/03/31 07:35:25;;;;;;;23.03;14.10;;;;;;;;;;5074223;28;20723;-75
2022/03/31 07:37:51;;;;;;;22.73;13.70;;;;;;;;;;5074147;28;20421;-65
2022/03/31 07:40:18;;;;;;;22.30;15.20;;;;;;;;;;5073699;28;20808;-65
2022/03/31 07:42:44;;;;;;;20.80;13.90;;;;;;;;;;5074042;28;20400;-67
2022/03/31 07:45:11;;;;;;;24.60;14.50;;;;;;;;;;5073982;28;20409;-77
2022/03/31 07:47:38;;;;;;;25.00;15.40;;;;;;;;;;5073824;28;20495;-66
2022/03/31 07:50:04;;;;;;;21.80;13.83;;;;;;;;;;5073832;28;20416;-65
2022/03/31 07:52:30;;;;;;;24.80;14.10;;;;;;;;;;5073433;28;20402;-69
2022/03/31 07:54:56;;;;;;;20.57;13.67;;;;;;;;;;5073880;28;20793;-67
2022/03/31 07:57:22;;;;;;;21.90;14.63;;;;;;;;;;5073769;28;20403;-66
2022/03/31 07:59:48;;;;;;;22.33;13.60;;;;;;;;;;5073687;28;20399;-68
2022/03/31 08:02:16;;;;;;;25.30;14.47;;;;;;;;;;5073759;28;20513;-77
2022/03/31 08:04:42;;;;;;;22.80;13.93;;;;;;;;;;5073716;28;20908;-78
2022/03/31 08:07:08;;;;;;;23.90;14.50;;;;;;;;;;5073563;28;20473;-75
2022/03/31 08:09:34;;;;;;;26.10;15.20;;;;;;;;;;5073670;28;20401;-73
2022/03/31 08:12:00;;;;;;;22.90;14.50;;;;;;;;;;5073597;28;20414;-67
2022/03/31 08:14:26;;;;;;;26.13;14.40;;;;;;;;;;5073621;28;20411;-75
2022/03/31 08:16:52;;;;;;;22.60;14.73;;;;;;;;;;5073423;28;20407;-76
2022/03/31 08:19:19;;;;;;;23.63;15.20;;;;;;;;;;5073191;28;20416;-67
2022/03/31 08:21:46;;;;;;;27.90;15.83;;;;;;;;;;5073412;28;20409;-68
2022/03/31 08:24:13;;;;;;;24.20;13.73;;;;;;;;;;5073364;28;20757;-68
2022/03/31 08:26:40;;;;;;;23.33;14.77;;;;;;;;;;5073299;28;20419;-75
2022/03/31 08:29:07;;;;;;;24.17;14.93;;;;;;;;;;5055162;28;20474;-66
2022/03/31 08:31:34;;;;;;;27.73;15.70;;;;;;;;;;5073317;28;20413;-72
2022/03/31 08:34:00;;;;;;;26.37;14.57;;;;;;;;;;5073334;28;20404;-66
2022/03/31 08:36:26;;;;;;;24.80;15.83;;;;;;;;;;5073109;28;20483;-75
2022/03/31 08:38:52;;;;;;;22.47;14.27;;;;;;;;;;5072968;28;20978;-67
2022/03/31 08:41:19;;;;;;;28.37;14.73;;;;;;;;;;5072961;28;20437;-66
2022/03/31 08:43:45;;;;;;;23.80;14.00;;;;;;;;;;5073094;28;20409;-73
2022/03/31 08:46:11;;;;;;;26.77;16.20;;;;;;;;;;5073079;28;20405;-74
2022/03/31 08:48:38;;;;;;;24.50;15.70;;;;;;;;;;5072884;28;20512;-73
2022/03/31 08:51:04;;;;;;;28.60;15.77;;;;;;;;;;5073109;28;20401;-67
2022/03/31 08:53:31;;;;;;;25.73;15.10;;;;;;;;;;5073133;28;20423;-70
2022/03/31 08:55:57;;;;;;;24.93;15.33;;;;;;;;;;5054876;28;20460;-69
2022/03/31 08:58:23;;;;;;;24.50;14.97;;;;;;;;;;5072942;28;20404;-67
2022/03/31 09:00:49;;;;;;;25.97;15.17;;;;;;;;;;5072994;28;20443;-71
2022/03/31 09:03:16;;;;;;;30.50;17.83;;;;;;;;;;5073007;28;20401;-73
2022/03/31 09:05:49;;;;;;;26.30;15.57;;;;;;;;;;5076940;28;20491;-72
2022/03/31 09:08:16;;;;;;;27.93;16.07;;;;;;;;;;5076897;28;20466;-75
2022/03/31 09:10:45;;;;;;;24.27;13.83;;;;;;;;;;5077049;28;20401;-75
2022/03/31 09:13:40;;;;;;;26.90;15.50;;;;;;;;;;5076946;28;20420;-66
2022/03/31 09:16:08;;;;;;;25.77;15.50;;;;;;;;;;5074889;28;20405;-66
2022/03/31 09:18:35;;;;;;;27.73;15.60;;;;;;;;;;5076600;28;20393;-70
2022/03/31 09:21:03;;;;;;;30.87;17.80;;;;;;;;;;5076632;28;20749;-73
2022/03/31 09:23:31;;;;;;;27.27;16.50;;;;;;;;;;5076671;28;20409;-74
2022/03/31 09:26:06;;;;;;;30.37;16.77;;;;;;;;;;5076653;28;20894;-69
2022/03/31 09:28:32;;;;;;;26.13;15.33;;;;;;;;;;5076527;28;20554;-76
2022/03/31 09:30:58;;;;;;;26.23;15.40;;;;;;;;;;5076522;28;20492;-67
2022/03/31 09:33:27;;;;;;;26.27;16.00;;;;;;;;;;5076332;28;20891;-75
2022/03/31 09:36:00;;;;;;;25.70;15.33;;;;;;;;;;5076519;28;20870;-75
2022/03/31 09:38:26;;;;;;;25.57;16.27;;;;;;;;;;5076124;28;20416;-72
2022/03/31 09:40:53;;;;;;;27.90;15.93;;;;;;;;;;5058455;28;20405;-74
2022/03/31 09:43:19;;;;;;;26.77;16.37;;;;;;;;;;5076356;28;20507;-76
2022/03/31 09:45:45;;;;;;;24.60;15.60;;;;;;;;;;5076434;28;20409;-76
2022/03/31 09:48:21;;;;;;;25.30;15.63;;;;;;;;;;5076059;28;20460;-66
2022/03/31 09:50:48;;;;;;;28.00;16.40;;;;;;;;;;5076407;28;20459;-78
2022/03/31 09:53:14;;;;;;;25.97;16.20;;;;;;;;;;5076302;28;20420;-66
2022/03/31 09:55:42;;;;;;;25.87;15.10;;;;;;;;;;5076254;28;20413;-78
2022/03/31 09:58:08;;;;;;;26.30;17.60;;;;;;;;;;5076096;28;20879;-72
2022/03/31 10:00:35;;;;;;;25.40;15.83;;;;;;;;;;5075994;28;20475;-70
2022/03/31 10:03:01;;;;;;;27.10;16.50;;;;;;;;;;5075992;28;20389;-68
2022/03/31 10:05:28;;;;;;;26.73;16.67;;;;;;;;;;5075926;28;20401;-76
2022/03/31 10:07:55;;;;;;;27.83;15.57;;;;;;;;;;5075770;28;20456;-67
2022/03/31 10:10:21;;;;;;;25.27;17.30;;;;;;;;;;5075903;28;20408;-76
2022/03/31 10:12:50;;;;;;;29.90;17.67;;;;;;;;;;5075832;28;20400;-67
2022/03/31 10:15:19;;;;;;;28.13;15.43;;;;;;;;;;5075193;28;20440;-76
2022/03/31 10:17:47;;;;;;;27.97;16.77;;;;;;;;;;5075778;28;20413;-73
2022/03/31 10:20:14;;;;;;;26.17;16.03;;;;;;;;;;5075556;28;20404;-77
2022/03/31 10:25:36;;;;;;;26.20;15.80;;;;;;;;;;5075896;28;20470;-78
2022/03/31 10:28:28;;;;;;;33.83;19.37;;;;;;;;;;5075270;28;20467;-75
2022/03/31 10:30:56;;;;;;;25.57;16.10;;;;;;;;;;5071890;28;20420;-65
2022/03/31 10:33:29;;;;;;;27.50;17.47;;;;;;;;;;5075367;28;20392;-67
2022/03/31 10:36:10;;;;;;;26.80;15.60;;;;;;;;;;5057300;28;20474;-65
2022/03/31 10:38:37;;;;;;;28.37;16.60;;;;;;;;;;5075088;28;20408;-79
2022/03/31 10:41:05;;;;;;;26.30;16.03;;;;;;;;;;5057312;28;20451;-78
2022/03/31 10:43:32;;;;;;;28.70;18.70;;;;;;;;;;5075169;28;20439;-66
2022/03/31 10:46:01;;;;;;;31.17;16.40;;;;;;;;;;5075215;28;20901;-77
2022/03/31 10:48:29;;;;;;;31.50;15.43;;;;;;;;;;5075008;28;20818;-78
2022/03/31 10:51:05;;;;;;;28.83;17.37;;;;;;;;;;5075043;28;20883;-71
2022/03/31 10:53:32;;;;;;;27.30;17.13;;;;;;;;;;5075062;28;20412;-67
2022/03/31 10:55:58;;;;;;;27.40;15.70;;;;;;;;;;5074986;28;20416;-71
2022/03/31 10:58:26;;;;;;;25.10;17.20;;;;;;;;;;5056967;28;20424;-66
2022/03/31 11:00:52;;;;;;;26.10;15.53;;;;;;;;;;5074943;28;20409;-79
2022/03/31 11:03:19;;;;;;;25.77;15.73;;;;;;;;;;5074934;28;20408;-71
2022/03/31 11:05:45;;;;;;;28.80;17.17;;;;;;;;;;5074754;28;20405;-78
2022/03/31 11:08:17;;;;;;;27.73;18.17;;;;;;;;;;5074719;28;20476;-66
2022/03/31 11:10:44;;;;;;;30.83;18.27;;;;;;;;;;5056739;28;20416;-68
2022/03/31 11:13:11;;;;;;;30.83;16.73;;;;;;;;;;5074584;28;20488;-66
2022/03/31 11:15:37;;;;;;;29.17;17.77;;;;;;;;;;5074737;28;20428;-78
2022/03/31 11:18:03;;;;;;;26.80;16.77;;;;;;;;;;5074272;28;20393;-66
2022/03/31 11:20:30;;;;;;;27.03;16.47;;;;;;;;;;5074362;28;20918;-79
2022/03/31 11:22:59;;;;;;;29.50;16.67;;;;;;;;;;5074712;28;20412;-70
2022/03/31 11:25:25;;;;;;;29.50;17.80;;;;;;;;;;5074403;28;20480;-66
2022/03/31 11:27:53;;;;;;;36.77;17.87;;;;;;;;;;5073301;28;20479;-78
2022/03/31 11:30:22;;;;;;;29.80;17.57;;;;;;;;;;5074153;28;20887;-80
2022/03/31 11:32:51;;;;;;;29.40;17.57;;;;;;;;;;5074339;28;20405;-71
2022/03/31 11:35:18;;;;;;;27.40;16.60;;;;;;;;;;5074184;28;20413;-75
2022/03/31 11:37:45;;;;;;;29.37;16.07;;;;;;;;;;5074231;28;20405;-76
2022/03/31 11:40:12;;;;;;;25.83;15.97;;;;;;;;;;5056019;28;20494;-71
2022/03/31 11:42:43;;;;;;;28.63;16.53;;;;;;;;;;5074113;28;20413;-78
2022/03/31 11:45:10;;;;;;;28.13;17.10;;;;;;;;;;5074159;28;20416;-79
2022/03/31 11:47:36;;;;;;;27.27;17.23;;;;;;;;;;5073888;28;20938;-79
2022/03/31 11:50:02;;;;;;;30.57;17.13;;;;;;;;;;5073889;28;20464;-68
2022/03/31 11:52:29;;;;;;;27.07;16.30;;;;;;;;;;5073793;28;20748;-68
2022/03/31 11:54:59;;;;;;;29.37;17.33;;;;;;;;;;5073967;28;20408;-66
2022/03/31 11:57:25;;;;;;;25.00;15.43;;;;;;;;;;5074008;28;20401;-68
2022/03/31 11:59:51;;;;;;;26.47;15.80;;;;;;;;;;5073481;28;20409;-69
2022/03/31 12:02:18;;;;;;;27.47;16.13;;;;;;;;;;5073990;28;20936;-66
2022/03/31 12:04:45;;;;;;;24.10;15.20;;;;;;;;;;5073565;28;20405;-66
2022/03/31 12:07:12;;;;;;;24.97;15.23;;;;;;;;;;5073594;28;20590;-67
2022/03/31 12:09:41;;;;;;;26.80;15.27;;;;;;;;;;5073589;28;20422;-78
2022/03/31 12:12:11;;;;;;;24.83;15.73;;;;;;;;;;5073433;28;20411;-67
2022/03/31 12:14:38;;;;;;;28.63;16.53;;;;;;;;;;5073460;28;20401;-76
2022/03/31 12:17:04;;;;;;;30.57;16.13;;;;;;;;;;5073441;28;20463;-79
2022/03/31 12:19:40;;;;;;;23.63;14.67;;;;;;;;;;5073205;28;20401;-67
2022/03/31 12:22:06;;;;;;;24.90;14.87;;;;;;;;;;5073248;28;20436;-72
2022/03/31 12:24:32;;;;;;;25.13;14.43;;;;;;;;;;5073253;28;20400;-68
2022/03/31 12:26:59;;;;;;;27.90;16.30;;;;;;;;;;5073297;28;20404;-68
2022/03/31 12:29:27;;;;;;;25.63;14.97;;;;;;;;;;5073266;28;20400;-79
2022/03/31 12:32:19;;;;;;;24.23;14.53;;;;;;;;;;5073236;28;20408;-79
2022/03/31 12:34:59;;;;;;;20.67;13.60;;;;;;;;;;5069722;28;20417;-67
2022/03/31 12:37:26;;;;;;;28.83;17.50;;;;;;;;;;5073106;28;20405;-80
2022/03/31 12:39:52;;;;;;;25.80;14.50;;;;;;;;;;5072759;28;20499;-73
2022/03/31 12:42:18;;;;;;;23.73;14.83;;;;;;;;;;5073132;28;20500;-79
2022/03/31 12:44:44;;;;;;;27.47;16.17;;;;;;;;;;5073117;28;20503;-80
2022/03/31 12:47:11;;;;;;;28.00;16.37;;;;;;;;;;5073098;28;20405;-67
2022/03/31 12:49:39;;;;;;;31.10;15.73;;;;;;;;;;5072920;28;20425;-66
2022/03/31 12:52:11;;;;;;;23.80;16.10;;;;;;;;;;5073138;28;20985;-80
2022/03/31 12:54:39;;;;;;;25.10;15.43;;;;;;;;;;5073068;28;20486;-77
2022/03/31 12:57:07;;;;;;;24.43;15.73;;;;;;;;;;5073056;28;20405;-66
2022/03/31 12:59:34;;;;;;;26.97;14.67;;;;;;;;;;5072883;28;20412;-67
2022/03/31 13:02:02;;;;;;;29.17;15.27;;;;;;;;;;5072877;28;20401;-66
2022/03/31 13:04:28;;;;;;;26.07;15.60;;;;;;;;;;5072941;28;20397;-67
2022/03/31 13:06:55;;;;;;;27.17;16.53;;;;;;;;;;5054845;28;20417;-77
2022/03/31 13:09:21;;;;;;;27.37;16.67;;;;;;;;;;5072878;28;20427;-79
2022/03/31 13:11:49;;;;;;;27.50;15.73;;;;;;;;;;5072869;28;20416;-75
2022/03/31 13:14:15;;;;;;;23.83;14.70;;;;;;;;;;5072927;28;20408;-74
2022/03/31 13:16:42;;;;;;;22.93;14.77;;;;;;;;;;5072851;28;20412;-73
2022/03/31 13:19:08;;;;;;;23.73;14.43;;;;;;;;;;5072535;28;20401;-72
2022/03/31 13:21:34;;;;;;;28.07;16.83;;;;;;;;;;5054787;28;20431;-66
2022/03/31 13:24:01;;;;;;;23.37;14.43;;;;;;;;;;5072689;28;20473;-72
2022/03/31 13:26:27;;;;;;;33.37;15.33;;;;;;;;;;5072678;28;20940;-65
2022/03/31 13:28:54;;;;;;;26.27;16.00;;;;;;;;;;5072543;28;20535;-66
2022/03/31 13:31:20;;;;;;;30.10;14.97;;;;;;;;;;5072681;28;20806;-76
2022/03/31 13:33:47;;;;;;;25.10;15.00;;;;;;;;;;5072645;28;20432;-67
2022/03/31 13:36:13;;;;;;;25.70;14.53;;;;;;;;;;5072537;28;20469;-67
2022/03/31 13:38:38;;;;;;;22.07;14.13;;;;;;;;;;5072208;28;20460;-68
2022/03/31 13:41:05;;;;;;;27.27;14.87;;;;;;;;;;5072529;28;20413;-66
2022/03/31 13:43:31;;;;;;;22.67;14.90;;;;;;;;;;5072467;28;20455;-66
2022/03/31 13:45:57;;;;;;;26.30;15.47;;;;;;;;;;5072627;28;20495;-66
2022/03/31 13:48:24;;;;;;;22.53;14.37;;;;;;;;;;5072354;28;20609;-66
2022/03/31 13:50:50;;;;;;;22.57;15.90;;;;;;;;;;5074892;28;20501;-76
2022/03/31 13:56:01;;;;;;;27.83;16.97;;;;;;;;;;5076563;28;20478;-65
2022/03/31 14:01:11;;;;;;;26.27;15.20;;;;;;;;;;5076194;28;20814;-65
2022/03/31 14:03:38;;;;;;;27.50;16.03;;;;;;;;;;5075945;28;20926;-66
2022/03/31 14:06:05;;;;;;;26.27;16.03;;;;;;;;;;5076032;28;20409;-66
2022/03/31 14:08:31;;;;;;;28.27;15.80;;;;;;;;;;5075885;28;20896;-66
2022/03/31 14:10:57;;;;;;;30.73;17.10;;;;;;;;;;5057915;28;20508;-68
2022/03/31 14:13:23;;;;;;;28.17;16.37;;;;;;;;;;5075876;28;20914;-78
2022/03/31 14:15:49;;;;;;;28.73;16.50;;;;;;;;;;5075836;28;20403;-65
2022/03/31 14:18:15;;;;;;;34.20;15.87;;;;;;;;;;5075816;28;20412;-77
2022/03/31 14:20:41;;;;;;;30.33;17.93;;;;;;;;;;5075538;28;20441;-65
2022/03/31 14:23:07;;;;;;;29.80;15.97;;;;;;;;;;5075620;28;20412;-67
2022/03/31 14:25:35;;;;;;;30.73;16.67;;;;;;;;;;5075618;28;20404;-66
2022/03/31 14:28:01;;;;;;;37.93;17.90;;;;;;;;;;5075426;28;20560;-75
2022/03/31 14:30:27;;;;;;;33.00;18.37;;;;;;;;;;5075481;28;20416;-66
2022/03/31 14:32:53;;;;;;;31.00;17.40;;;;;;;;;;5075572;28;20446;-66
2022/03/31 14:35:20;;;;;;;32.93;17.47;;;;;;;;;;5075384;28;20405;-66